sensor_id;sensor_type;location;lat;lon;timestamp;temperature;humidity
44223;DHT22;29895;48.804;9.386;2024-01-11T00:02:18;-5.50;99.90
44223;DHT22;29895;48.804;9.386;2024-01-11T00:04:44;-5.50;99.90
44223;DHT22;29895;48.804;9.386;2024-01-11T00:07:10;-5.50;99.90
44223;DHT22;29895;48.804;9.386;2024-01-11T00:09:42;-5.50;99.90
44223;DHT22;29895;48.804;9.386;2024-01-11T00:12:08;-5.50;99.90
44223;DHT22;29895;48.804;9.386;2024-01-11T00:14:34;-5.50;99.90
44223;DHT22;29895;48.804;9.386;2024-01-11T00:17:00;-5.50;99.90
44223;DHT22;29895;48.804;9.386;2024-01-11T00:19:26;-5.60;99.90
44223;DHT22;29895;48.804;9.386;2024-01-11T00:21:51;-5.60;99.90
44223;DHT22;29895;48.804;9.386;2024-01-11T00:24:17;-5.70;99.90
44223;DHT22;29895;48.804;9.386;2024-01-11T00:26:43;-5.70;99.90
44223;DHT22;29895;48.804;9.386;2024-01-11T00:29:08;-5.60;99.90
44223;DHT22;29895;48.804;9.386;2024-01-11T00:31:34;-5.60;99.90
44223;DHT22;29895;48.804;9.386;2024-01-11T00:34:00;-5.60;99.90
44223;DHT22;29895;48.804;9.386;2024-01-11T00:36:26;-5.60;99.90
44223;DHT22;29895;48.804;9.386;2024-01-11T00:38:53;-5.50;99.90
44223;DHT22;29895;48.804;9.386;2024-01-11T00:41:19;-5.50;99.90
44223;DHT22;29895;48.804;9.386;2024-01-11T00:43:45;-5.60;99.90
44223;DHT22;29895;48.804;9.386;2024-01-11T00:46:11;-5.60;99.90
44223;DHT22;29895;48.804;9.386;2024-01-11T00:48:36;-5.60;99.90
44223;DHT22;29895;48.804;9.386;2024-01-11T00:51:04;-5.70;99.90
44223;DHT22;29895;48.804;9.386;2024-01-11T00:53:30;-5.70;99.90
44223;DHT22;29895;48.804;9.386;2024-01-11T00:55:59;-5.70;99.90
44223;DHT22;29895;48.804;9.386;2024-01-11T00:58:25;-5.90;99.90
44223;DHT22;29895;48.804;9.386;2024-01-11T01:00:51;-6.00;99.90
44223;DHT22;29895;48.804;9.386;2024-01-11T01:03:19;-6.00;99.90
44223;DHT22;29895;48.804;9.386;2024-01-11T01:05:45;-6.00;99.90
44223;DHT22;29895;48.804;9.386;2024-01-11T01:08:11;-5.90;99.90
44223;DHT22;29895;48.804;9.386;2024-01-11T01:10:37;-5.80;99.90
44223;DHT22;29895;48.804;9.386;2024-01-11T01:13:03;-5.90;99.90
44223;DHT22;29895;48.804;9.386;2024-01-11T01:15:28;-5.90;99.90
44223;DHT22;29895;48.804;9.386;2024-01-11T01:17:54;-5.90;99.90
44223;DHT22;29895;48.804;9.386;2024-01-11T01:20:20;-5.90;99.90
44223;DHT22;29895;48.804;9.386;2024-01-11T01:22:45;-5.90;99.90
44223;DHT22;29895;48.804;9.386;2024-01-11T01:25:11;-6.00;99.90
44223;DHT22;29895;48.804;9.386;2024-01-11T01:27:37;-6.00;99.90
44223;DHT22;29895;48.804;9.386;2024-01-11T01:30:03;-6.00;99.90
44223;DHT22;29895;48.804;9.386;2024-01-11T01:32:29;-5.90;99.90
44223;DHT22;29895;48.804;9.386;2024-01-11T01:34:55;-5.90;99.90
44223;DHT22;29895;48.804;9.386;2024-01-11T01:37:21;-5.90;99.90
44223;DHT22;29895;48.804;9.386;2024-01-11T01:39:47;-5.90;99.90
44223;DHT22;29895;48.804;9.386;2024-01-11T01:42:12;-5.90;99.90
44223;DHT22;29895;48.804;9.386;2024-01-11T01:44:38;-5.80;99.90
44223;DHT22;29895;48.804;9.386;2024-01-11T01:47:06;-5.90;99.90
44223;DHT22;29895;48.804;9.386;2024-01-11T01:49:33;-5.90;99.90
44223;DHT22;29895;48.804;9.386;2024-01-11T01:51:59;-5.90;99.90
44223;DHT22;29895;48.804;9.386;2024-01-11T01:54:25;-5.90;99.90
44223;DHT22;29895;48.804;9.386;2024-01-11T01:56:51;-6.00;99.90
44223;DHT22;29895;48.804;9.386;2024-01-11T01:59:17;-6.00;99.90
44223;DHT22;29895;48.804;9.386;2024-01-11T02:01:44;-5.90;99.90
44223;DHT22;29895;48.804;9.386;2024-01-11T02:04:10;-5.90;99.90
44223;DHT22;29895;48.804;9.386;2024-01-11T02:06:36;-5.90;99.90
44223;DHT22;29895;48.804;9.386;2024-01-11T02:09:03;-6.00;99.90
44223;DHT22;29895;48.804;9.386;2024-01-11T02:11:29;-6.00;99.90
44223;DHT22;29895;48.804;9.386;2024-01-11T02:13:55;-5.90;99.90
44223;DHT22;29895;48.804;9.386;2024-01-11T02:16:23;-6.00;99.90
44223;DHT22;29895;48.804;9.386;2024-01-11T02:18:48;-6.00;99.90
44223;DHT22;29895;48.804;9.386;2024-01-11T02:21:15;-6.00;99.90
44223;DHT22;29895;48.804;9.386;2024-01-11T02:24:04;-6.00;99.90
44223;DHT22;29895;48.804;9.386;2024-01-11T02:26:30;-6.00;99.90
44223;DHT22;29895;48.804;9.386;2024-01-11T02:28:56;-6.10;99.90
44223;DHT22;29895;48.804;9.386;2024-01-11T02:31:21;-6.10;99.90
44223;DHT22;29895;48.804;9.386;2024-01-11T02:33:47;-6.20;99.90
44223;DHT22;29895;48.804;9.386;2024-01-11T02:36:13;-6.30;99.90
44223;DHT22;29895;48.804;9.386;2024-01-11T02:38:41;-6.20;99.90
44223;DHT22;29895;48.804;9.386;2024-01-11T02:41:08;-6.20;99.90
44223;DHT22;29895;48.804;9.386;2024-01-11T02:43:34;-6.30;99.90
44223;DHT22;29895;48.804;9.386;2024-01-11T02:46:02;-6.20;99.90
44223;DHT22;29895;48.804;9.386;2024-01-11T02:48:29;-6.20;99.90
44223;DHT22;29895;48.804;9.386;2024-01-11T02:50:55;-6.20;99.90
44223;DHT22;29895;48.804;9.386;2024-01-11T02:53:21;-6.30;99.90
44223;DHT22;29895;48.804;9.386;2024-01-11T02:55:47;-6.20;99.90
44223;DHT22;29895;48.804;9.386;2024-01-11T02:58:12;-6.20;99.90
44223;DHT22;29895;48.804;9.386;2024-01-11T03:00:38;-6.20;99.90
44223;DHT22;29895;48.804;9.386;2024-01-11T03:03:04;-6.20;99.90
44223;DHT22;29895;48.804;9.386;2024-01-11T03:05:29;-6.30;99.90
44223;DHT22;29895;48.804;9.386;2024-01-11T03:07:55;-6.50;99.90
44223;DHT22;29895;48.804;9.386;2024-01-11T03:10:21;-6.40;99.90
44223;DHT22;29895;48.804;9.386;2024-01-11T03:12:46;-6.40;99.90
44223;DHT22;29895;48.804;9.386;2024-01-11T03:15:14;-6.30;99.90
44223;DHT22;29895;48.804;9.386;2024-01-11T03:17:40;-6.30;99.90
44223;DHT22;29895;48.804;9.386;2024-01-11T03:20:06;-6.20;99.90
44223;DHT22;29895;48.804;9.386;2024-01-11T03:22:32;-6.20;99.90
44223;DHT22;29895;48.804;9.386;2024-01-11T03:24:58;-6.20;99.90
44223;DHT22;29895;48.804;9.386;2024-01-11T03:27:24;-6.20;99.90
44223;DHT22;29895;48.804;9.386;2024-01-11T03:29:50;-6.20;99.90
44223;DHT22;29895;48.804;9.386;2024-01-11T03:32:15;-6.30;99.90
44223;DHT22;29895;48.804;9.386;2024-01-11T03:34:41;-6.40;99.90
44223;DHT22;29895;48.804;9.386;2024-01-11T03:37:07;-6.40;99.90
44223;DHT22;29895;48.804;9.386;2024-01-11T03:39:33;-6.40;99.90
44223;DHT22;29895;48.804;9.386;2024-01-11T03:41:59;-6.30;99.90
44223;DHT22;29895;48.804;9.386;2024-01-11T03:44:25;-6.30;99.90
44223;DHT22;29895;48.804;9.386;2024-01-11T03:46:50;-6.30;99.90
44223;DHT22;29895;48.804;9.386;2024-01-11T03:49:17;-6.30;99.90
44223;DHT22;29895;48.804;9.386;2024-01-11T03:51:42;-6.40;99.90
44223;DHT22;29895;48.804;9.386;2024-01-11T03:54:08;-6.50;99.90
44223;DHT22;29895;48.804;9.386;2024-01-11T03:56:37;-6.50;99.90
44223;DHT22;29895;48.804;9.386;2024-01-11T03:59:04;-6.60;99.90
44223;DHT22;29895;48.804;9.386;2024-01-11T04:01:31;-6.60;99.90
44223;DHT22;29895;48.804;9.386;2024-01-11T04:03:57;-6.60;99.90
44223;DHT22;29895;48.804;9.386;2024-01-11T04:06:22;-6.60;99.90
44223;DHT22;29895;48.804;9.386;2024-01-11T04:08:49;-6.70;99.90
44223;DHT22;29895;48.804;9.386;2024-01-11T04:11:16;-6.60;99.90
44223;DHT22;29895;48.804;9.386;2024-01-11T04:13:42;-6.50;99.90
44223;DHT22;29895;48.804;9.386;2024-01-11T04:16:07;-6.40;99.90
44223;DHT22;29895;48.804;9.386;2024-01-11T04:18:33;-6.40;99.90
44223;DHT22;29895;48.804;9.386;2024-01-11T04:20:59;-6.40;99.90
44223;DHT22;29895;48.804;9.386;2024-01-11T04:23:25;-6.40;99.90
44223;DHT22;29895;48.804;9.386;2024-01-11T04:25:50;-6.40;99.90
44223;DHT22;29895;48.804;9.386;2024-01-11T04:28:17;-6.50;99.90
44223;DHT22;29895;48.804;9.386;2024-01-11T04:30:43;-6.50;99.90
44223;DHT22;29895;48.804;9.386;2024-01-11T04:33:09;-6.50;99.90
44223;DHT22;29895;48.804;9.386;2024-01-11T04:35:38;-6.60;99.90
44223;DHT22;29895;48.804;9.386;2024-01-11T04:38:04;-6.60;99.90
44223;DHT22;29895;48.804;9.386;2024-01-11T04:40:29;-6.60;99.90
44223;DHT22;29895;48.804;9.386;2024-01-11T04:42:55;-6.70;99.90
44223;DHT22;29895;48.804;9.386;2024-01-11T04:45:20;-6.70;99.90
44223;DHT22;29895;48.804;9.386;2024-01-11T04:47:47;-6.70;99.90
44223;DHT22;29895;48.804;9.386;2024-01-11T04:50:15;-6.80;99.90
44223;DHT22;29895;48.804;9.386;2024-01-11T04:52:41;-6.90;99.90
44223;DHT22;29895;48.804;9.386;2024-01-11T04:55:07;-7.00;99.90
44223;DHT22;29895;48.804;9.386;2024-01-11T04:57:32;-7.00;99.90
44223;DHT22;29895;48.804;9.386;2024-01-11T04:59:58;-7.00;99.90
44223;DHT22;29895;48.804;9.386;2024-01-11T05:02:24;-7.00;99.90
44223;DHT22;29895;48.804;9.386;2024-01-11T05:04:50;-7.10;99.90
44223;DHT22;29895;48.804;9.386;2024-01-11T05:07:15;-7.20;99.90
44223;DHT22;29895;48.804;9.386;2024-01-11T05:09:41;-7.10;99.90
44223;DHT22;29895;48.804;9.386;2024-01-11T05:12:07;-7.00;99.90
44223;DHT22;29895;48.804;9.386;2024-01-11T05:14:32;-6.90;99.90
44223;DHT22;29895;48.804;9.386;2024-01-11T05:16:58;-6.90;99.90
44223;DHT22;29895;48.804;9.386;2024-01-11T05:19:24;-6.80;99.90
44223;DHT22;29895;48.804;9.386;2024-01-11T05:21:49;-6.90;99.90
44223;DHT22;29895;48.804;9.386;2024-01-11T05:24:15;-6.90;99.90
44223;DHT22;29895;48.804;9.386;2024-01-11T05:26:40;-6.90;99.90
44223;DHT22;29895;48.804;9.386;2024-01-11T05:29:06;-6.90;99.90
44223;DHT22;29895;48.804;9.386;2024-01-11T05:31:32;-6.90;99.90
44223;DHT22;29895;48.804;9.386;2024-01-11T05:33:57;-6.90;99.90
44223;DHT22;29895;48.804;9.386;2024-01-11T05:36:23;-6.90;99.90
44223;DHT22;29895;48.804;9.386;2024-01-11T05:38:48;-7.00;99.90
44223;DHT22;29895;48.804;9.386;2024-01-11T05:41:14;-7.00;99.90
44223;DHT22;29895;48.804;9.386;2024-01-11T05:43:40;-7.00;99.90
44223;DHT22;29895;48.804;9.386;2024-01-11T05:46:07;-7.00;99.90
44223;DHT22;29895;48.804;9.386;2024-01-11T05:48:33;-6.90;99.90
44223;DHT22;29895;48.804;9.386;2024-01-11T05:50:59;-6.90;99.90
44223;DHT22;29895;48.804;9.386;2024-01-11T05:53:25;-6.90;99.90
44223;DHT22;29895;48.804;9.386;2024-01-11T05:55:53;-6.90;99.90
44223;DHT22;29895;48.804;9.386;2024-01-11T05:58:18;-6.90;99.90
44223;DHT22;29895;48.804;9.386;2024-01-11T06:00:45;-6.90;99.90
44223;DHT22;29895;48.804;9.386;2024-01-11T06:03:14;-7.00;99.90
44223;DHT22;29895;48.804;9.386;2024-01-11T06:05:40;-7.00;99.90
44223;DHT22;29895;48.804;9.386;2024-01-11T06:08:06;-7.00;99.90
44223;DHT22;29895;48.804;9.386;2024-01-11T06:10:33;-7.10;99.90
44223;DHT22;29895;48.804;9.386;2024-01-11T06:12:58;-7.20;99.90
44223;DHT22;29895;48.804;9.386;2024-01-11T06:15:24;-7.10;99.90
44223;DHT22;29895;48.804;9.386;2024-01-11T06:17:49;-7.00;99.90
44223;DHT22;29895;48.804;9.386;2024-01-11T06:20:15;-7.00;99.90
44223;DHT22;29895;48.804;9.386;2024-01-11T06:22:41;-7.00;99.90
44223;DHT22;29895;48.804;9.386;2024-01-11T06:25:07;-7.10;99.90
44223;DHT22;29895;48.804;9.386;2024-01-11T06:27:32;-7.00;99.90
44223;DHT22;29895;48.804;9.386;2024-01-11T06:29:58;-6.90;99.90
44223;DHT22;29895;48.804;9.386;2024-01-11T06:32:24;-6.90;99.90
44223;DHT22;29895;48.804;9.386;2024-01-11T06:34:50;-6.90;99.90
44223;DHT22;29895;48.804;9.386;2024-01-11T06:37:15;-6.90;99.90
44223;DHT22;29895;48.804;9.386;2024-01-11T06:39:41;-6.90;99.90
44223;DHT22;29895;48.804;9.386;2024-01-11T06:42:07;-6.90;99.90
44223;DHT22;29895;48.804;9.386;2024-01-11T06:44:32;-7.00;99.90
44223;DHT22;29895;48.804;9.386;2024-01-11T06:46:58;-7.00;99.90
44223;DHT22;29895;48.804;9.386;2024-01-11T06:49:24;-7.00;99.90
44223;DHT22;29895;48.804;9.386;2024-01-11T06:51:49;-7.00;99.90
44223;DHT22;29895;48.804;9.386;2024-01-11T06:54:15;-7.10;99.90
44223;DHT22;29895;48.804;9.386;2024-01-11T06:56:40;-7.00;99.90
44223;DHT22;29895;48.804;9.386;2024-01-11T06:59:07;-7.10;99.90
44223;DHT22;29895;48.804;9.386;2024-01-11T07:01:33;-7.10;99.90
44223;DHT22;29895;48.804;9.386;2024-01-11T07:03:58;-7.10;99.90
44223;DHT22;29895;48.804;9.386;2024-01-11T07:06:24;-7.10;99.90
44223;DHT22;29895;48.804;9.386;2024-01-11T07:08:50;-7.10;99.90
44223;DHT22;29895;48.804;9.386;2024-01-11T07:11:15;-7.10;99.90
44223;DHT22;29895;48.804;9.386;2024-01-11T07:13:41;-7.10;99.90
44223;DHT22;29895;48.804;9.386;2024-01-11T07:16:08;-7.10;99.90
44223;DHT22;29895;48.804;9.386;2024-01-11T07:18:34;-7.00;99.90
44223;DHT22;29895;48.804;9.386;2024-01-11T07:21:00;-7.00;99.90
44223;DHT22;29895;48.804;9.386;2024-01-11T07:23:27;-7.10;99.90
44223;DHT22;29895;48.804;9.386;2024-01-11T07:25:53;-7.20;99.90
44223;DHT22;29895;48.804;9.386;2024-01-11T07:28:18;-7.10;99.90
44223;DHT22;29895;48.804;9.386;2024-01-11T07:30:45;-6.90;99.90
44223;DHT22;29895;48.804;9.386;2024-01-11T07:33:11;-6.90;99.90
44223;DHT22;29895;48.804;9.386;2024-01-11T07:35:37;-6.80;99.90
44223;DHT22;29895;48.804;9.386;2024-01-11T07:38:03;-6.90;99.90
44223;DHT22;29895;48.804;9.386;2024-01-11T07:40:29;-6.90;99.90
44223;DHT22;29895;48.804;9.386;2024-01-11T07:42:55;-6.90;99.90
44223;DHT22;29895;48.804;9.386;2024-01-11T07:45:20;-6.90;99.90
44223;DHT22;29895;48.804;9.386;2024-01-11T07:47:46;-6.90;99.90
44223;DHT22;29895;48.804;9.386;2024-01-11T07:50:12;-6.80;99.90
44223;DHT22;29895;48.804;9.386;2024-01-11T07:52:38;-6.80;99.90
44223;DHT22;29895;48.804;9.386;2024-01-11T07:55:07;-6.60;99.90
44223;DHT22;29895;48.804;9.386;2024-01-11T07:57:34;-6.40;99.90
44223;DHT22;29895;48.804;9.386;2024-01-11T08:00:00;-6.30;99.90
44223;DHT22;29895;48.804;9.386;2024-01-11T08:02:26;-6.20;99.90
44223;DHT22;29895;48.804;9.386;2024-01-11T08:04:52;-6.20;99.90
44223;DHT22;29895;48.804;9.386;2024-01-11T08:07:17;-6.10;99.90
44223;DHT22;29895;48.804;9.386;2024-01-11T08:09:43;-6.10;99.90
44223;DHT22;29895;48.804;9.386;2024-01-11T08:12:12;-6.00;99.90
44223;DHT22;29895;48.804;9.386;2024-01-11T08:14:39;-5.90;99.90
44223;DHT22;29895;48.804;9.386;2024-01-11T08:17:05;-5.80;99.90
44223;DHT22;29895;48.804;9.386;2024-01-11T08:19:34;-5.70;99.90
44223;DHT22;29895;48.804;9.386;2024-01-11T08:21:59;-5.50;99.90
44223;DHT22;29895;48.804;9.386;2024-01-11T08:24:25;-5.40;99.90
44223;DHT22;29895;48.804;9.386;2024-01-11T08:26:51;-5.30;99.90
44223;DHT22;29895;48.804;9.386;2024-01-11T08:29:17;-5.20;99.90
44223;DHT22;29895;48.804;9.386;2024-01-11T08:31:45;-5.10;99.90
44223;DHT22;29895;48.804;9.386;2024-01-11T08:34:11;-5.00;99.90
44223;DHT22;29895;48.804;9.386;2024-01-11T08:36:36;-4.90;99.90
44223;DHT22;29895;48.804;9.386;2024-01-11T08:39:04;-4.90;99.90
44223;DHT22;29895;48.804;9.386;2024-01-11T08:41:34;-4.80;99.90
44223;DHT22;29895;48.804;9.386;2024-01-11T08:44:01;-4.60;99.90
44223;DHT22;29895;48.804;9.386;2024-01-11T08:46:28;-4.60;99.90
44223;DHT22;29895;48.804;9.386;2024-01-11T08:48:56;-4.50;99.90
44223;DHT22;29895;48.804;9.386;2024-01-11T08:51:22;-4.40;99.90
44223;DHT22;29895;48.804;9.386;2024-01-11T08:53:48;-4.30;99.90
44223;DHT22;29895;48.804;9.386;2024-01-11T08:56:14;-4.30;99.90
44223;DHT22;29895;48.804;9.386;2024-01-11T08:58:41;-4.10;99.90
44223;DHT22;29895;48.804;9.386;2024-01-11T09:01:07;-4.10;99.90
44223;DHT22;29895;48.804;9.386;2024-01-11T09:03:37;-4.10;99.90
44223;DHT22;29895;48.804;9.386;2024-01-11T09:06:03;-4.10;99.90
44223;DHT22;29895;48.804;9.386;2024-01-11T09:08:29;-4.00;99.90
44223;DHT22;29895;48.804;9.386;2024-01-11T09:10:59;-4.00;99.90
44223;DHT22;29895;48.804;9.386;2024-01-11T09:13:25;-4.00;99.90
44223;DHT22;29895;48.804;9.386;2024-01-11T09:15:54;-3.90;99.90
44223;DHT22;29895;48.804;9.386;2024-01-11T09:18:21;-3.80;99.90
44223;DHT22;29895;48.804;9.386;2024-01-11T09:20:47;-3.80;99.90
44223;DHT22;29895;48.804;9.386;2024-01-11T09:23:13;-3.70;99.90
44223;DHT22;29895;48.804;9.386;2024-01-11T09:25:39;-3.70;99.90
44223;DHT22;29895;48.804;9.386;2024-01-11T09:28:05;-3.60;99.90
44223;DHT22;29895;48.804;9.386;2024-01-11T09:30:31;-3.60;99.90
44223;DHT22;29895;48.804;9.386;2024-01-11T09:32:57;-3.40;99.90
44223;DHT22;29895;48.804;9.386;2024-01-11T09:35:23;-3.20;99.90
44223;DHT22;29895;48.804;9.386;2024-01-11T09:37:50;-2.90;99.90
44223;DHT22;29895;48.804;9.386;2024-01-11T09:40:16;-2.90;99.90
44223;DHT22;29895;48.804;9.386;2024-01-11T09:42:42;-2.90;99.90
44223;DHT22;29895;48.804;9.386;2024-01-11T09:45:12;-2.90;99.90
44223;DHT22;29895;48.804;9.386;2024-01-11T09:47:38;-2.70;99.90
44223;DHT22;29895;48.804;9.386;2024-01-11T09:50:05;-2.60;99.90
44223;DHT22;29895;48.804;9.386;2024-01-11T09:52:31;-2.50;99.90
44223;DHT22;29895;48.804;9.386;2024-01-11T09:55:01;-2.30;99.90
44223;DHT22;29895;48.804;9.386;2024-01-11T09:57:31;-2.40;99.90
44223;DHT22;29895;48.804;9.386;2024-01-11T09:59:58;-2.30;99.90
44223;DHT22;29895;48.804;9.386;2024-01-11T10:02:25;-2.30;99.90
44223;DHT22;29895;48.804;9.386;2024-01-11T10:04:52;-2.20;99.90
44223;DHT22;29895;48.804;9.386;2024-01-11T10:07:19;-2.10;99.90
44223;DHT22;29895;48.804;9.386;2024-01-11T10:09:47;-2.10;99.90
44223;DHT22;29895;48.804;9.386;2024-01-11T10:12:13;-2.00;99.90
44223;DHT22;29895;48.804;9.386;2024-01-11T10:14:39;-1.80;99.90
44223;DHT22;29895;48.804;9.386;2024-01-11T10:17:06;-1.70;99.90
44223;DHT22;29895;48.804;9.386;2024-01-11T10:19:32;-1.70;99.90
44223;DHT22;29895;48.804;9.386;2024-01-11T10:21:58;-1.70;99.90
44223;DHT22;29895;48.804;9.386;2024-01-11T10:24:26;-1.50;99.90
44223;DHT22;29895;48.804;9.386;2024-01-11T10:26:57;-1.40;99.90
44223;DHT22;29895;48.804;9.386;2024-01-11T10:29:30;-1.40;99.90
44223;DHT22;29895;48.804;9.386;2024-01-11T10:31:56;-1.40;99.90
44223;DHT22;29895;48.804;9.386;2024-01-11T10:34:23;-1.40;99.90
44223;DHT22;29895;48.804;9.386;2024-01-11T10:36:50;-1.50;99.90
44223;DHT22;29895;48.804;9.386;2024-01-11T10:39:17;-1.50;99.90
44223;DHT22;29895;48.804;9.386;2024-01-11T10:41:47;-1.60;99.90
44223;DHT22;29895;48.804;9.386;2024-01-11T10:44:21;-1.60;99.90
44223;DHT22;29895;48.804;9.386;2024-01-11T10:46:48;-1.70;99.90
44223;DHT22;29895;48.804;9.386;2024-01-11T10:49:18;-1.70;99.90
44223;DHT22;29895;48.804;9.386;2024-01-11T10:52:03;-1.50;99.90
44223;DHT22;29895;48.804;9.386;2024-01-11T10:54:33;-1.30;99.90
44223;DHT22;29895;48.804;9.386;2024-01-11T10:57:00;-1.00;99.90
44223;DHT22;29895;48.804;9.386;2024-01-11T10:59:29;-0.80;99.90
44223;DHT22;29895;48.804;9.386;2024-01-11T11:02:05;-0.60;99.90
44223;DHT22;29895;48.804;9.386;2024-01-11T11:04:33;-0.40;99.90
44223;DHT22;29895;48.804;9.386;2024-01-11T11:07:01;-0.40;99.90
44223;DHT22;29895;48.804;9.386;2024-01-11T11:09:28;-0.40;99.90
44223;DHT22;29895;48.804;9.386;2024-01-11T11:11:58;-0.20;99.90
44223;DHT22;29895;48.804;9.386;2024-01-11T11:14:24;-0.10;99.90
44223;DHT22;29895;48.804;9.386;2024-01-11T11:16:51;-0.10;99.90
44223;DHT22;29895;48.804;9.386;2024-01-11T11:19:21;-0.30;99.90
44223;DHT22;29895;48.804;9.386;2024-01-11T11:21:48;-0.20;99.90
44223;DHT22;29895;48.804;9.386;2024-01-11T11:24:14;-0.10;99.90
44223;DHT22;29895;48.804;9.386;2024-01-11T11:26:42;-0.20;99.90
44223;DHT22;29895;48.804;9.386;2024-01-11T11:29:08;-0.20;99.90
44223;DHT22;29895;48.804;9.386;2024-01-11T11:31:41;-0.10;99.90
44223;DHT22;29895;48.804;9.386;2024-01-11T11:34:10;0.00;99.90
44223;DHT22;29895;48.804;9.386;2024-01-11T11:36:36;-0.10;99.90
44223;DHT22;29895;48.804;9.386;2024-01-11T11:39:02;-0.10;99.90
44223;DHT22;29895;48.804;9.386;2024-01-11T11:41:30;-0.10;99.90
44223;DHT22;29895;48.804;9.386;2024-01-11T11:44:01;0.10;99.90
44223;DHT22;29895;48.804;9.386;2024-01-11T11:46:27;0.20;99.90
44223;DHT22;29895;48.804;9.386;2024-01-11T11:48:53;0.10;99.90
44223;DHT22;29895;48.804;9.386;2024-01-11T11:51:20;0.10;99.90
44223;DHT22;29895;48.804;9.386;2024-01-11T11:53:51;0.10;99.90
44223;DHT22;29895;48.804;9.386;2024-01-11T11:56:19;-0.10;99.90
44223;DHT22;29895;48.804;9.386;2024-01-11T11:58:45;-0.20;99.90
44223;DHT22;29895;48.804;9.386;2024-01-11T12:01:13;-0.20;99.90
44223;DHT22;29895;48.804;9.386;2024-01-11T12:03:41;-0.20;99.90
44223;DHT22;29895;48.804;9.386;2024-01-11T12:06:09;-0.10;99.90
44223;DHT22;29895;48.804;9.386;2024-01-11T12:08:37;0.10;99.90
44223;DHT22;29895;48.804;9.386;2024-01-11T12:11:06;0.10;99.90
44223;DHT22;29895;48.804;9.386;2024-01-11T12:13:32;0.20;99.90
44223;DHT22;29895;48.804;9.386;2024-01-11T12:15:58;0.10;99.90
44223;DHT22;29895;48.804;9.386;2024-01-11T12:18:23;0.20;99.90
44223;DHT22;29895;48.804;9.386;2024-01-11T12:20:51;0.10;99.90
44223;DHT22;29895;48.804;9.386;2024-01-11T12:23:19;0.10;99.90
44223;DHT22;29895;48.804;9.386;2024-01-11T12:25:44;0.00;99.90
44223;DHT22;29895;48.804;9.386;2024-01-11T12:28:10;0.00;99.90
44223;DHT22;29895;48.804;9.386;2024-01-11T12:30:36;0.10;99.90
44223;DHT22;29895;48.804;9.386;2024-01-11T12:33:03;0.10;99.90
44223;DHT22;29895;48.804;9.386;2024-01-11T12:35:30;0.10;99.90
44223;DHT22;29895;48.804;9.386;2024-01-11T12:38:15;0.10;99.90
44223;DHT22;29895;48.804;9.386;2024-01-11T12:40:41;0.20;99.90
44223;DHT22;29895;48.804;9.386;2024-01-11T12:43:07;0.20;99.90
44223;DHT22;29895;48.804;9.386;2024-01-11T12:45:35;0.20;99.90
44223;DHT22;29895;48.804;9.386;2024-01-11T12:48:01;0.20;99.90
44223;DHT22;29895;48.804;9.386;2024-01-11T12:50:29;0.30;99.90
44223;DHT22;29895;48.804;9.386;2024-01-11T12:53:13;0.30;99.90
44223;DHT22;29895;48.804;9.386;2024-01-11T12:55:49;0.40;99.90
44223;DHT22;29895;48.804;9.386;2024-01-11T12:58:19;0.50;99.90
44223;DHT22;29895;48.804;9.386;2024-01-11T13:00:45;0.50;99.90
44223;DHT22;29895;48.804;9.386;2024-01-11T13:03:11;0.60;99.90
44223;DHT22;29895;48.804;9.386;2024-01-11T13:05:37;0.60;99.90
44223;DHT22;29895;48.804;9.386;2024-01-11T13:08:08;0.60;99.90
44223;DHT22;29895;48.804;9.386;2024-01-11T13:10:34;0.50;99.90
44223;DHT22;29895;48.804;9.386;2024-01-11T13:13:01;0.60;99.90
44223;DHT22;29895;48.804;9.386;2024-01-11T13:15:27;0.60;99.90
44223;DHT22;29895;48.804;9.386;2024-01-11T13:17:55;0.60;99.90
44223;DHT22;29895;48.804;9.386;2024-01-11T13:20:21;0.60;99.90
44223;DHT22;29895;48.804;9.386;2024-01-11T13:22:47;0.70;99.90
44223;DHT22;29895;48.804;9.386;2024-01-11T13:25:13;0.70;99.90
44223;DHT22;29895;48.804;9.386;2024-01-11T13:27:38;0.80;99.90
44223;DHT22;29895;48.804;9.386;2024-01-11T13:30:05;0.70;99.90
44223;DHT22;29895;48.804;9.386;2024-01-11T13:32:31;0.70;99.90
44223;DHT22;29895;48.804;9.386;2024-01-11T13:34:57;0.70;99.90
44223;DHT22;29895;48.804;9.386;2024-01-11T13:37:23;0.70;99.90
44223;DHT22;29895;48.804;9.386;2024-01-11T13:39:49;0.80;99.90
44223;DHT22;29895;48.804;9.386;2024-01-11T13:42:15;0.80;99.90
44223;DHT22;29895;48.804;9.386;2024-01-11T13:44:41;0.70;99.90
44223;DHT22;29895;48.804;9.386;2024-01-11T13:47:07;0.70;99.90
44223;DHT22;29895;48.804;9.386;2024-01-11T13:49:33;0.70;99.90
44223;DHT22;29895;48.804;9.386;2024-01-11T13:52:00;0.70;99.90
44223;DHT22;29895;48.804;9.386;2024-01-11T13:54:25;0.80;99.90
44223;DHT22;29895;48.804;9.386;2024-01-11T13:56:51;0.80;99.90
44223;DHT22;29895;48.804;9.386;2024-01-11T13:59:18;0.80;99.90
44223;DHT22;29895;48.804;9.386;2024-01-11T14:01:43;0.80;99.90
44223;DHT22;29895;48.804;9.386;2024-01-11T14:04:09;0.80;99.90
44223;DHT22;29895;48.804;9.386;2024-01-11T14:06:35;0.80;99.90
44223;DHT22;29895;48.804;9.386;2024-01-11T14:09:00;0.90;99.90
44223;DHT22;29895;48.804;9.386;2024-01-11T14:11:28;0.90;99.90
44223;DHT22;29895;48.804;9.386;2024-01-11T14:13:55;0.70;99.90
44223;DHT22;29895;48.804;9.386;2024-01-11T14:16:21;0.70;99.90
44223;DHT22;29895;48.804;9.386;2024-01-11T14:18:46;0.60;99.90
44223;DHT22;29895;48.804;9.386;2024-01-11T14:21:12;0.60;99.90
44223;DHT22;29895;48.804;9.386;2024-01-11T14:23:38;0.60;99.90
44223;DHT22;29895;48.804;9.386;2024-01-11T14:26:03;0.50;99.90
44223;DHT22;29895;48.804;9.386;2024-01-11T14:28:29;0.60;99.90
44223;DHT22;29895;48.804;9.386;2024-01-11T14:30:55;0.50;99.90
44223;DHT22;29895;48.804;9.386;2024-01-11T14:33:21;0.50;99.90
44223;DHT22;29895;48.804;9.386;2024-01-11T14:35:47;0.40;99.90
44223;DHT22;29895;48.804;9.386;2024-01-11T14:38:13;0.30;99.90
44223;DHT22;29895;48.804;9.386;2024-01-11T14:40:38;0.40;99.90
44223;DHT22;29895;48.804;9.386;2024-01-11T14:43:04;0.40;99.90
44223;DHT22;29895;48.804;9.386;2024-01-11T14:45:30;0.40;99.90
44223;DHT22;29895;48.804;9.386;2024-01-11T14:47:56;0.30;99.90
44223;DHT22;29895;48.804;9.386;2024-01-11T14:50:21;0.30;99.90
44223;DHT22;29895;48.804;9.386;2024-01-11T14:52:47;0.30;99.90
44223;DHT22;29895;48.804;9.386;2024-01-11T14:55:16;0.20;99.90
44223;DHT22;29895;48.804;9.386;2024-01-11T14:57:41;0.20;99.90
44223;DHT22;29895;48.804;9.386;2024-01-11T15:00:08;0.20;99.90
44223;DHT22;29895;48.804;9.386;2024-01-11T15:02:35;0.20;99.90
44223;DHT22;29895;48.804;9.386;2024-01-11T15:05:01;0.10;99.90
44223;DHT22;29895;48.804;9.386;2024-01-11T15:07:27;0.10;99.90
44223;DHT22;29895;48.804;9.386;2024-01-11T15:09:53;0.10;99.90
44223;DHT22;29895;48.804;9.386;2024-01-11T15:12:18;0.00;99.90
44223;DHT22;29895;48.804;9.386;2024-01-11T15:14:45;0.00;99.90
44223;DHT22;29895;48.804;9.386;2024-01-11T15:17:11;-0.10;99.90
44223;DHT22;29895;48.804;9.386;2024-01-11T15:19:36;-0.10;99.90
44223;DHT22;29895;48.804;9.386;2024-01-11T15:22:02;-0.20;99.90
44223;DHT22;29895;48.804;9.386;2024-01-11T15:24:28;-0.30;99.90
44223;DHT22;29895;48.804;9.386;2024-01-11T15:26:55;-0.40;99.90
44223;DHT22;29895;48.804;9.386;2024-01-11T15:29:20;-0.40;99.90
44223;DHT22;29895;48.804;9.386;2024-01-11T15:31:47;-0.50;99.90